Time;durP1;ratioP1;P1;durP2;ratioP2;P2;SDS_P1;SDS_P2;PMS_P1;PMS_P2;Temp;Humidity;BMP_temperature;BMP_pressure;BME280_temperature;BME280_humidity;BME280_pressure;Samples;Min_cycle;Max_cycle;Signal;HPM_P1;HPM_P2
2021/07/25 00:01:42;;;;;;;15.52;9.43;;;19.20;89.90;;;;;;5035610;28;20036;-73
2021/07/25 00:04:07;;;;;;;16.08;11.05;;;19.20;89.50;;;;;;5036006;28;20045;-74
2021/07/25 00:06:33;;;;;;;13.98;10.05;;;19.10;89.70;;;;;;5036611;28;20013;-73
2021/07/25 00:08:59;;;;;;;14.93;10.82;;;19.10;89.70;;;;;;5035504;28;20022;-73
2021/07/25 00:11:24;;;;;;;13.13;10.00;;;19.10;90.00;;;;;;5035358;28;20033;-74
2021/07/25 00:13:52;;;;;;;14.30;9.98;;;19.10;90.00;;;;;;5035439;28;20022;-73
2021/07/25 00:16:19;;;;;;;12.65;10.35;;;19.10;89.70;;;;;;5035483;28;20022;-73
2021/07/25 00:18:44;;;;;;;14.00;10.15;;;19.00;90.00;;;;;;5033942;28;20040;-74
2021/07/25 00:21:10;;;;;;;13.82;10.32;;;19.00;90.00;;;;;;5035401;28;20026;-73
2021/07/25 00:23:37;;;;;;;13.50;9.60;;;18.90;90.30;;;;;;5035103;28;20048;-73
2021/07/25 00:26:03;;;;;;;12.60;9.30;;;19.00;90.30;;;;;;5035410;28;20018;-74
2021/07/25 00:28:35;;;;;;;14.50;9.68;;;19.00;90.50;;;;;;5036187;28;20036;-74
2021/07/25 00:31:05;;;;;;;10.13;8.15;;;19.00;91.30;;;;;;5018214;28;20028;-74
2021/07/25 00:33:32;;;;;;;11.68;9.32;;;19.10;90.50;;;;;;5036524;28;20028;-74
2021/07/25 00:36:00;;;;;;;11.10;8.50;;;19.20;90.40;;;;;;5037322;28;20148;-74
2021/07/25 00:38:26;;;;;;;15.52;9.40;;;19.20;90.10;;;;;;5040165;28;20087;-73
2021/07/25 00:40:57;;;;;;;13.90;10.43;;;19.20;89.50;;;;;;5036640;28;20021;-73
2021/07/25 00:43:27;;;;;;;18.60;9.65;;;19.20;89.60;;;;;;5039011;28;20021;-74
2021/07/25 00:45:54;;;;;;;15.77;9.77;;;19.20;89.30;;;;;;5037505;28;20018;-73
2021/07/25 00:48:20;;;;;;;14.63;9.50;;;19.10;89.70;;;;;;5019600;28;20508;-73
2021/07/25 00:50:46;;;;;;;13.40;9.13;;;19.10;89.60;;;;;;5036643;28;20037;-73
2021/07/25 00:53:12;;;;;;;13.90;8.35;;;19.10;89.40;;;;;;5036634;28;20021;-73
2021/07/25 00:55:40;;;;;;;13.82;10.05;;;19.10;89.40;;;;;;5037223;28;20040;-73
2021/07/25 00:58:05;;;;;;;14.93;10.10;;;19.20;89.50;;;;;;5036329;28;20029;-73
2021/07/25 01:00:31;;;;;;;14.70;9.80;;;19.20;90.00;;;;;;5037339;28;20032;-73
2021/07/25 01:03:21;;;;;;;15.77;9.32;;;19.20;90.40;;;;;;5036188;28;20021;-73
2021/07/25 01:06:06;;;;;;;17.38;10.57;;;19.10;90.20;;;;;;5035248;28;20052;-74
2021/07/25 01:08:53;;;;;;;16.45;10.93;;;19.10;90.20;;;;;;5036153;28;20108;-74
2021/07/25 01:11:19;;;;;;;12.52;9.82;;;19.10;90.10;;;;;;5036006;28;20032;-73
2021/07/25 01:13:49;;;;;;;15.32;10.07;;;19.00;89.70;;;;;;5035415;28;20026;-74
2021/07/25 01:16:15;;;;;;;12.20;9.02;;;19.00;89.80;;;;;;5035600;28;20022;-74
2021/07/25 01:18:48;;;;;;;12.95;9.73;;;19.00;89.90;;;;;;5035622;28;20040;-73
2021/07/25 01:21:15;;;;;;;13.35;9.43;;;19.00;90.20;;;;;;5035320;28;20023;-73
2021/07/25 01:23:42;;;;;;;11.68;9.75;;;19.00;89.90;;;;;;5035545;28;20045;-74
2021/07/25 01:26:10;;;;;;;13.13;8.70;;;19.00;89.60;;;;;;5035174;28;20028;-73
2021/07/25 01:28:40;;;;;;;12.90;9.35;;;18.90;88.70;;;;;;5035420;28;20056;-73
2021/07/25 01:31:12;;;;;;;13.63;8.63;;;18.80;88.70;;;;;;5034644;28;20045;-73
2021/07/25 01:33:40;;;;;;;13.15;9.68;;;18.80;89.30;;;;;;5035668;28;20052;-72
2021/07/25 01:36:06;;;;;;;13.20;7.95;;;18.90;89.40;;;;;;5034981;28;20105;-72
2021/07/25 01:38:32;;;;;;;12.88;9.10;;;18.90;89.50;;;;;;5034932;28;20108;-72
2021/07/25 01:41:05;;;;;;;10.15;7.85;;;18.90;88.40;;;;;;5034455;28;20022;-72
2021/07/25 01:43:39;;;;;;;12.05;8.48;;;18.80;89.10;;;;;;5034956;28;20021;-73
2021/07/25 01:46:05;;;;;;;13.10;9.07;;;18.70;89.00;;;;;;5034541;28;20030;-72
2021/07/25 01:48:31;;;;;;;13.45;8.48;;;18.70;89.40;;;;;;5034731;28;20101;-72
2021/07/25 01:50:57;;;;;;;11.38;8.10;;;18.80;89.70;;;;;;5035265;28;20057;-72
2021/07/25 01:53:22;;;;;;;9.98;7.50;;;18.80;89.30;;;;;;5034027;28;20033;-72
2021/07/25 01:55:48;;;;;;;8.85;7.55;;;18.90;89.30;;;;;;5033685;28;20029;-72
2021/07/25 01:58:13;;;;;;;11.10;7.00;;;18.80;88.70;;;;;;5015701;28;20087;-72
2021/07/25 02:00:39;;;;;;;9.93;6.70;;;18.80;88.50;;;;;;5033615;28;20022;-72
2021/07/25 02:03:05;;;;;;;9.40;7.00;;;18.80;87.80;;;;;;5033282;28;20386;-72
2021/07/25 02:05:31;;;;;;;11.60;7.03;;;18.90;88.00;;;;;;5033164;28;20490;-72
2021/07/25 02:07:56;;;;;;;6.57;5.88;;;18.90;88.00;;;;;;5033260;28;20112;-72
2021/07/25 02:10:22;;;;;;;8.10;6.40;;;18.90;87.90;;;;;;5015373;28;20079;-72
2021/07/25 02:12:48;;;;;;;7.55;5.28;;;18.90;87.60;;;;;;5033243;28;20029;-72
2021/07/25 02:15:14;;;;;;;6.53;5.50;;;18.90;88.10;;;;;;5032920;28;20061;-72
2021/07/25 02:17:40;;;;;;;6.60;5.07;;;18.90;86.40;;;;;;5033211;28;20033;-72
2021/07/25 02:20:06;;;;;;;6.72;4.75;;;18.90;86.50;;;;;;5015406;28;20030;-73
2021/07/25 02:22:32;;;;;;;7.18;5.03;;;19.00;85.60;;;;;;5033022;28;20410;-72
2021/07/25 02:24:57;;;;;;;7.20;5.07;;;19.00;85.00;;;;;;5033082;28;20021;-72
2021/07/25 02:27:23;;;;;;;9.18;4.68;;;19.00;84.90;;;;;;5033050;28;20028;-72
2021/07/25 02:29:49;;;;;;;7.68;4.65;;;19.00;84.30;;;;;;5032977;28;20429;-72
2021/07/25 02:32:14;;;;;;;7.18;5.13;;;18.90;84.20;;;;;;5033031;28;20075;-72
2021/07/25 02:34:41;;;;;;;5.53;4.60;;;18.90;84.10;;;;;;5032929;28;20432;-72
2021/07/25 02:37:11;;;;;;;7.18;5.20;;;18.90;84.30;;;;;;5032835;28;20509;-72
2021/07/25 02:39:37;;;;;;;5.85;4.70;;;18.90;84.10;;;;;;5032882;28;20489;-72
2021/07/25 02:42:03;;;;;;;6.50;4.97;;;18.90;84.70;;;;;;5034591;28;20466;-72
2021/07/25 02:44:29;;;;;;;6.22;4.88;;;19.00;84.90;;;;;;5037094;28;20028;-72
2021/07/25 02:46:54;;;;;;;7.93;4.88;;;19.00;85.00;;;;;;5036954;28;20519;-72
2021/07/25 02:49:20;;;;;;;7.05;5.60;;;19.00;84.70;;;;;;5036803;28;20037;-72
2021/07/25 02:51:46;;;;;;;8.95;5.45;;;19.00;84.30;;;;;;5036849;28;20026;-72
2021/07/25 02:54:11;;;;;;;7.50;5.30;;;18.90;84.80;;;;;;5019022;28;20040;-72
2021/07/25 02:56:37;;;;;;;7.57;5.18;;;18.90;84.80;;;;;;5036613;28;20404;-72
2021/07/25 02:59:03;;;;;;;8.93;5.20;;;18.90;84.40;;;;;;5036626;28;20025;-72
2021/07/25 03:01:28;;;;;;;9.93;5.88;;;18.80;84.00;;;;;;5036581;28;20057;-72
2021/07/25 03:03:54;;;;;;;8.45;5.40;;;18.80;84.50;;;;;;5036481;28;20045;-72
2021/07/25 03:06:19;;;;;;;9.82;5.40;;;18.80;84.70;;;;;;5036564;28;20044;-72
2021/07/25 03:08:45;;;;;;;8.25;6.45;;;18.90;84.90;;;;;;5036749;28;20021;-72
2021/07/25 03:11:10;;;;;;;8.95;6.53;;;18.90;84.80;;;;;;5036819;28;20032;-72
2021/07/25 03:13:37;;;;;;;8.98;6.25;;;18.90;85.10;;;;;;5040846;28;20022;-72
2021/07/25 03:16:04;;;;;;;8.80;6.78;;;18.90;85.10;;;;;;5042333;28;20029;-73
2021/07/25 03:18:31;;;;;;;9.07;6.40;;;18.80;85.10;;;;;;5037806;28;20033;-72
2021/07/25 03:20:56;;;;;;;9.45;7.15;;;18.90;85.50;;;;;;5036449;28;20064;-71
2021/07/25 03:23:22;;;;;;;8.25;6.70;;;18.90;85.40;;;;;;5036225;28;20026;-72
2021/07/25 03:25:47;;;;;;;10.55;6.65;;;18.90;85.40;;;;;;5036338;28;20053;-71
2021/07/25 03:28:13;;;;;;;11.00;6.97;;;18.90;85.40;;;;;;5036196;28;20029;-71
2021/07/25 03:30:39;;;;;;;7.55;5.80;;;18.90;85.50;;;;;;5035668;28;20032;-72
2021/07/25 03:33:05;;;;;;;9.10;7.03;;;19.00;85.50;;;;;;5036084;28;20034;-71
2021/07/25 03:35:30;;;;;;;9.30;6.50;;;19.00;85.50;;;;;;5036001;28;20071;-71
2021/07/25 03:37:56;;;;;;;10.68;6.65;;;19.00;85.60;;;;;;5035955;28;20048;-71
2021/07/25 03:40:25;;;;;;;9.43;7.15;;;19.00;84.70;;;;;;5018480;28;20034;-71
2021/07/25 03:42:51;;;;;;;8.60;6.35;;;18.90;84.80;;;;;;5036050;28;20053;-73
2021/07/25 03:45:17;;;;;;;13.35;7.93;;;18.90;84.30;;;;;;5035821;28;20041;-71
2021/07/25 03:47:43;;;;;;;9.00;6.75;;;18.80;85.40;;;;;;5035825;28;20022;-71
2021/07/25 03:50:09;;;;;;;10.40;7.75;;;18.70;85.60;;;;;;5035764;28;20018;-71
2021/07/25 03:52:36;;;;;;;9.80;6.70;;;18.70;85.80;;;;;;5035427;28;20025;-74
2021/07/25 03:55:06;;;;;;;6.78;6.03;;;18.80;85.60;;;;;;5035745;28;20378;-71
2021/07/25 03:57:32;;;;;;;10.43;7.13;;;18.80;85.50;;;;;;5035575;28;20037;-71
2021/07/25 03:59:57;;;;;;;8.02;6.05;;;18.90;85.70;;;;;;5035591;28;20113;-72
2021/07/25 04:02:23;;;;;;;7.72;5.70;;;19.00;85.50;;;;;;5035572;28;20475;-73
2021/07/25 04:04:49;;;;;;;6.75;5.60;;;19.00;85.40;;;;;;5035457;28;20053;-73
2021/07/25 04:07:14;;;;;;;11.98;7.25;;;19.00;85.50;;;;;;5035504;28;20025;-73
2021/07/25 04:09:40;;;;;;;11.52;6.68;;;18.90;86.40;;;;;;5035328;28;20485;-72
2021/07/25 04:12:06;;;;;;;9.75;6.13;;;18.80;86.90;;;;;;5035405;28;20026;-72
2021/07/25 04:14:32;;;;;;;10.93;5.78;;;18.70;86.90;;;;;;5035317;28;20493;-73
2021/07/25 04:16:57;;;;;;;6.88;4.95;;;18.70;86.00;;;;;;5035278;28;20195;-72
2021/07/25 04:19:23;;;;;;;7.90;5.15;;;18.80;86.00;;;;;;5035155;28;20034;-73
2021/07/25 04:21:48;;;;;;;8.18;5.43;;;18.90;86.00;;;;;;5035325;28;20112;-73
2021/07/25 04:24:14;;;;;;;5.90;5.20;;;18.90;85.80;;;;;;5035497;28;20110;-72
2021/07/25 04:26:40;;;;;;;9.38;5.65;;;18.90;85.50;;;;;;5035140;28;20073;-73
2021/07/25 04:29:06;;;;;;;12.57;6.75;;;18.90;86.00;;;;;;5035147;28;20025;-72
2021/07/25 04:31:32;;;;;;;9.95;5.35;;;18.80;86.50;;;;;;5034735;28;20044;-76
2021/07/25 04:33:59;;;;;;;12.27;5.70;;;18.80;86.50;;;;;;5034935;28;20097;-76
2021/07/25 04:36:27;;;;;;;5.25;4.55;;;18.80;86.70;;;;;;5034893;28;20021;-76
2021/07/25 04:38:54;;;;;;;7.10;5.75;;;18.80;86.80;;;;;;5017160;28;20057;-76
2021/07/25 04:41:22;;;;;;;10.40;5.40;;;18.80;86.30;;;;;;5034916;28;20053;-76
2021/07/25 04:43:52;;;;;;;7.97;4.95;;;18.90;86.40;;;;;;5017153;28;20033;-76
2021/07/25 04:46:28;;;;;;;5.43;4.72;;;18.90;86.30;;;;;;5034759;28;20018;-75
2021/07/25 04:49:11;;;;;;;8.23;5.25;;;19.00;86.10;;;;;;5034728;28;20470;-75
2021/07/25 04:51:38;;;;;;;6.80;5.00;;;19.00;86.00;;;;;;5034270;28;20482;-73
2021/07/25 04:54:15;;;;;;;6.55;5.35;;;19.10;85.80;;;;;;5034713;28;20109;-73
2021/07/25 04:57:01;;;;;;;7.63;5.47;;;19.20;85.40;;;;;;5034525;28;20029;-74
2021/07/25 04:59:29;;;;;;;8.50;5.30;;;19.30;85.40;;;;;;5034503;28;20183;-73
2021/07/25 05:02:03;;;;;;;8.30;5.05;;;19.40;85.20;;;;;;5034531;28;20029;-73
2021/07/25 05:04:32;;;;;;;8.20;5.03;;;19.40;85.10;;;;;;5033504;28;20037;-73
2021/07/25 05:06:58;;;;;;;5.43;4.63;;;19.40;83.20;;;;;;5034317;28;20079;-73
2021/07/25 05:09:25;;;;;;;9.68;4.88;;;19.40;83.20;;;;;;5034184;28;20030;-74
2021/07/25 05:11:59;;;;;;;7.13;5.25;;;19.40;84.30;;;;;;5032971;28;20040;-74
2021/07/25 05:14:30;;;;;;;9.88;6.90;;;19.40;84.30;;;;;;5033473;28;20025;-73
2021/07/25 05:17:03;;;;;;;9.27;5.38;;;19.40;84.80;;;;;;5034075;28;20466;-73
2021/07/25 05:19:37;;;;;;;7.05;5.68;;;19.40;85.00;;;;;;5036074;28;20381;-73
2021/07/25 05:22:28;;;;;;;6.22;5.38;;;19.50;84.90;;;;;;5034204;28;20045;-73
2021/07/25 05:24:54;;;;;;;9.77;5.57;;;19.50;84.90;;;;;;5034133;28;20077;-73
2021/07/25 05:27:22;;;;;;;8.23;5.20;;;19.60;84.70;;;;;;5034019;28;20037;-77
2021/07/25 05:29:50;;;;;;;7.28;5.13;;;19.70;84.50;;;;;;5033910;28;20378;-76
2021/07/25 05:32:16;;;;;;;6.93;5.45;;;19.80;84.20;;;;;;5033982;28;20056;-75
2021/07/25 05:34:42;;;;;;;6.50;5.10;;;19.90;83.80;;;;;;5033937;28;20044;-75
2021/07/25 05:37:08;;;;;;;10.35;5.72;;;20.00;83.40;;;;;;5033813;28;20474;-77
2021/07/25 05:39:34;;;;;;;7.75;5.15;;;20.00;82.80;;;;;;5033641;28;20037;-76
2021/07/25 05:41:59;;;;;;;5.40;4.90;;;20.00;82.60;;;;;;5033688;28;20466;-73
2021/07/25 05:44:26;;;;;;;8.35;4.95;;;20.00;82.20;;;;;;5033553;28;20075;-73
2021/07/25 05:46:51;;;;;;;6.22;4.93;;;20.10;82.10;;;;;;5033718;28;20019;-74
2021/07/25 05:49:17;;;;;;;7.97;5.32;;;20.10;81.90;;;;;;5033453;28;20075;-75
2021/07/25 05:51:43;;;;;;;6.03;4.55;;;20.10;81.80;;;;;;5015704;28;20022;-76
2021/07/25 05:54:08;;;;;;;7.57;5.00;;;20.10;82.10;;;;;;5033467;28;20060;-73
2021/07/25 05:56:34;;;;;;;7.57;4.95;;;20.10;82.10;;;;;;5033401;28;20542;-76
2021/07/25 05:59:00;;;;;;;5.50;4.40;;;20.20;81.60;;;;;;5015572;28;20172;-73
2021/07/25 06:01:25;;;;;;;6.53;4.53;;;20.20;81.40;;;;;;5033274;28;20029;-75
2021/07/25 06:03:51;;;;;;;7.90;4.95;;;20.20;81.20;;;;;;5036592;28;20082;-75
2021/07/25 06:06:16;;;;;;;5.97;4.57;;;20.30;81.30;;;;;;5053168;28;20523;-74
2021/07/25 06:08:43;;;;;;;6.68;4.00;;;20.20;81.30;;;;;;5053040;28;20036;-75
2021/07/25 06:11:08;;;;;;;6.47;4.18;;;20.30;81.30;;;;;;5053146;28;20029;-75
2021/07/25 06:13:34;;;;;;;5.43;4.70;;;20.30;81.30;;;;;;5052822;28;20538;-75
2021/07/25 06:15:59;;;;;;;7.72;5.03;;;20.30;81.40;;;;;;5053018;28;20036;-73
2021/07/25 06:18:25;;;;;;;6.68;5.20;;;20.30;81.40;;;;;;5052926;28;20036;-76
2021/07/25 06:20:51;;;;;;;8.25;5.10;;;20.30;81.40;;;;;;5053126;28;20017;-73
2021/07/25 06:23:16;;;;;;;5.93;5.03;;;20.40;81.30;;;;;;5053135;28;20437;-76
2021/07/25 06:25:42;;;;;;;9.45;8.00;;;20.50;81.20;;;;;;5055827;28;20033;-75
2021/07/25 06:28:09;;;;;;;43.88;32.15;;;20.50;80.90;;;;;;5057779;28;20033;-76
2021/07/25 06:30:35;;;;;;;35.00;25.45;;;20.60;80.10;;;;;;5056598;28;20456;-75
2021/07/25 06:33:08;;;;;;;19.10;14.98;;;20.50;79.80;;;;;;5052922;28;20100;-77
2021/07/25 06:35:38;;;;;;;7.13;6.25;;;20.60;79.70;;;;;;5051526;28;20044;-75
2021/07/25 06:38:06;;;;;;;7.68;5.35;;;20.60;79.40;;;;;;5052921;28;20041;-76
2021/07/25 06:40:33;;;;;;;6.65;5.00;;;20.60;79.20;;;;;;5051349;28;20447;-74
2021/07/25 06:43:00;;;;;;;8.98;4.60;;;20.70;79.30;;;;;;5052799;28;20021;-74
2021/07/25 06:45:27;;;;;;;6.05;4.45;;;20.80;78.90;;;;;;5052692;28;20036;-75
2021/07/25 06:47:53;;;;;;;8.40;5.20;;;20.80;78.50;;;;;;5034872;28;20393;-76
2021/07/25 06:50:20;;;;;;;6.03;4.75;;;21.00;78.10;;;;;;5052584;28;20021;-75
2021/07/25 06:52:47;;;;;;;8.13;5.22;;;21.10;77.80;;;;;;5052550;28;20044;-74
2021/07/25 06:55:12;;;;;;;5.75;4.55;;;21.20;77.20;;;;;;5052772;28;20029;-77
2021/07/25 06:57:38;;;;;;;5.90;4.38;;;21.30;76.50;;;;;;5052542;28;20029;-75
2021/07/25 07:00:05;;;;;;;5.63;4.60;;;21.40;75.70;;;;;;5052585;28;20206;-77
2021/07/25 07:02:47;;;;;;;7.70;4.60;;;21.50;75.10;;;;;;5034518;28;20032;-77
2021/07/25 07:05:14;;;;;;;7.03;4.82;;;21.60;74.80;;;;;;5052242;28;20159;-78
2021/07/25 07:07:39;;;;;;;7.38;5.15;;;21.70;74.70;;;;;;5052389;28;20362;-79
2021/07/25 07:10:05;;;;;;;6.43;4.93;;;21.70;74.00;;;;;;5052566;28;20104;-80
2021/07/25 07:12:31;;;;;;;5.82;4.70;;;21.70;73.00;;;;;;5052725;28;20039;-78
2021/07/25 07:14:57;;;;;;;6.70;5.30;;;21.80;73.00;;;;;;5052506;28;20029;-77
2021/07/25 07:17:22;;;;;;;6.32;5.20;;;21.80;72.60;;;;;;5052080;28;20473;-77
2021/07/25 07:19:48;;;;;;;9.65;5.50;;;21.70;72.40;;;;;;5051931;28;20032;-77
2021/07/25 07:22:27;;;;;;;8.15;5.60;;;21.50;71.80;;;;;;5051205;28;20047;-76
2021/07/25 07:24:54;;;;;;;6.70;4.65;;;21.40;72.10;;;;;;5034695;28;20492;-82
2021/07/25 07:27:23;;;;;;;10.07;6.35;;;21.40;75.00;;;;;;5052500;28;20029;-83
2021/07/25 07:29:50;;;;;;;7.70;4.95;;;21.40;74.90;;;;;;5056189;28;20048;-82
2021/07/25 07:32:16;;;;;;;7.95;5.75;;;21.50;74.90;;;;;;5056154;28;20033;-74
2021/07/25 07:34:41;;;;;;;8.27;5.22;;;21.60;74.10;;;;;;5038290;28;20489;-84
2021/07/25 07:37:07;;;;;;;9.48;5.38;;;21.60;73.50;;;;;;5056131;28;20029;-81
2021/07/25 07:39:35;;;;;;;8.00;5.20;;;21.60;73.40;;;;;;5056077;28;20029;-81
2021/07/25 07:42:00;;;;;;;6.55;4.80;;;21.60;72.90;;;;;;5056068;28;20462;-81
2021/07/25 07:44:26;;;;;;;9.85;6.78;;;21.70;72.40;;;;;;5056092;28;20033;-82
2021/07/25 07:46:52;;;;;;;9.38;6.10;;;21.60;72.40;;;;;;5056346;28;20025;-82
2021/07/25 07:49:18;;;;;;;8.27;4.68;;;21.70;72.50;;;;;;5055555;28;20427;-82
2021/07/25 07:51:46;;;;;;;9.77;5.22;;;21.70;72.90;;;;;;5055978;28;20033;-82
2021/07/25 07:54:12;;;;;;;8.77;5.60;;;21.70;72.60;;;;;;5054512;28;20029;-82
2021/07/25 07:56:37;;;;;;;8.60;5.13;;;21.80;72.40;;;;;;5055792;28;20025;-82
2021/07/25 07:59:03;;;;;;;6.78;4.90;;;21.90;72.10;;;;;;5056194;28;20083;-82
2021/07/25 08:01:29;;;;;;;10.25;5.30;;;21.90;71.90;;;;;;5055683;28;20025;-82
2021/07/25 08:03:54;;;;;;;8.07;5.57;;;22.00;71.50;;;;;;5055603;28;20041;-84
2021/07/25 08:06:20;;;;;;;7.03;5.82;;;22.00;70.60;;;;;;5055953;28;20082;-83
2021/07/25 08:08:46;;;;;;;7.32;5.20;;;21.90;71.20;;;;;;5056102;28;20021;-82
2021/07/25 08:11:11;;;;;;;8.95;4.68;;;21.90;71.50;;;;;;5056210;28;20488;-82
2021/07/25 08:13:37;;;;;;;9.23;5.03;;;21.90;71.80;;;;;;5056307;28;20029;-82
2021/07/25 08:16:02;;;;;;;7.90;5.38;;;21.90;71.70;;;;;;5038435;28;20106;-83
2021/07/25 08:18:28;;;;;;;8.27;5.47;;;22.00;71.40;;;;;;5060024;28;20037;-81
2021/07/25 08:20:53;;;;;;;7.30;4.95;;;22.10;71.20;;;;;;5061277;28;20021;-84
2021/07/25 08:23:19;;;;;;;8.18;5.75;;;22.10;71.30;;;;;;5057665;28;20029;-85
2021/07/25 08:25:45;;;;;;;11.18;6.13;;;22.10;70.40;;;;;;5056053;28;20021;-85
2021/07/25 08:28:11;;;;;;;6.63;5.40;;;21.90;71.20;;;;;;5055355;28;20025;-81
2021/07/25 08:30:37;;;;;;;7.85;5.18;;;22.00;71.50;;;;;;5055100;28;20059;-84
2021/07/25 08:33:03;;;;;;;7.47;4.72;;;22.00;71.20;;;;;;5055477;28;20025;-86
2021/07/25 08:35:28;;;;;;;7.35;4.93;;;22.20;71.10;;;;;;5055228;28;20047;-82
2021/07/25 08:37:54;;;;;;;24.40;9.45;;;22.40;70.70;;;;;;5055016;28;20033;-84
2021/07/25 08:40:22;;;;;;;10.05;6.43;;;22.60;70.40;;;;;;5053806;28;20021;-83
2021/07/25 08:43:08;;;;;;;12.27;6.45;;;22.70;69.80;;;;;;5055114;28;20025;-79
2021/07/25 08:45:37;;;;;;;7.03;5.50;;;22.90;69.50;;;;;;5054930;28;20118;-79
2021/07/25 08:48:17;;;;;;;8.85;5.80;;;22.80;68.90;;;;;;5054889;28;20540;-80
2021/07/25 08:50:49;;;;;;;9.07;5.00;;;22.80;68.70;;;;;;5054816;28;20029;-81
2021/07/25 08:53:18;;;;;;;10.13;5.07;;;22.80;68.70;;;;;;5054858;28;20496;-80
2021/07/25 08:55:45;;;;;;;8.57;5.45;;;22.70;68.70;;;;;;5054770;28;20383;-81
2021/07/25 08:58:12;;;;;;;7.28;5.35;;;22.70;69.70;;;;;;5054665;28;20401;-80
2021/07/25 09:00:39;;;;;;;8.52;4.88;;;22.60;69.30;;;;;;5054490;28;20025;-76
2021/07/25 09:03:07;;;;;;;7.57;5.18;;;22.50;69.90;;;;;;5056001;28;20048;-79
2021/07/25 09:05:33;;;;;;;8.23;5.35;;;22.30;70.30;;;;;;5054693;28;20037;-81
2021/07/25 09:08:02;;;;;;;8.70;6.53;;;22.20;70.30;;;;;;5036797;28;20393;-80
2021/07/25 09:10:28;;;;;;;8.35;6.85;;;22.00;70.80;;;;;;5054751;28;20017;-81
2021/07/25 09:12:55;;;;;;;9.55;6.43;;;21.90;70.90;;;;;;5054676;28;20083;-80
2021/07/25 09:15:36;;;;;;;7.28;5.78;;;21.80;71.20;;;;;;5054258;28;20051;-77
2021/07/25 09:18:03;;;;;;;8.85;6.13;;;21.80;72.30;;;;;;5055745;28;20041;-80
2021/07/25 09:20:34;;;;;;;9.30;5.60;;;21.80;72.70;;;;;;5038339;28;20112;-79
2021/07/25 09:23:03;;;;;;;11.38;6.50;;;21.80;72.90;;;;;;5053999;28;20028;-78
2021/07/25 09:25:32;;;;;;;8.27;5.85;;;21.80;73.40;;;;;;5053983;28;20021;-80
2021/07/25 09:27:58;;;;;;;16.45;13.13;;;21.80;73.60;;;;;;5036144;28;20124;-80
2021/07/25 09:30:25;;;;;;;9.98;6.70;;;21.90;73.70;;;;;;5053437;28;20096;-80
2021/07/25 09:32:54;;;;;;;10.27;7.80;;;21.70;74.90;;;;;;5055525;28;20032;-80
2021/07/25 09:35:36;;;;;;;12.63;7.55;;;21.50;76.50;;;;;;5054369;28;20428;-80
2021/07/25 09:38:04;;;;;;;11.48;7.95;;;21.10;78.70;;;;;;5036504;28;20032;-81
2021/07/25 09:40:32;;;;;;;11.80;8.05;;;21.10;79.00;;;;;;5036390;28;20021;-79
2021/07/25 09:43:16;;;;;;;11.68;7.95;;;21.10;79.20;;;;;;5054099;28;20028;-79
2021/07/25 09:45:47;;;;;;;9.93;6.80;;;21.10;79.10;;;;;;5052699;28;20066;-79
2021/07/25 09:48:13;;;;;;;9.77;7.03;;;21.10;79.40;;;;;;5052515;28;20040;-79
2021/07/25 09:50:39;;;;;;;9.20;6.72;;;21.20;79.30;;;;;;5053165;28;20027;-79
2021/07/25 09:53:05;;;;;;;12.20;6.65;;;21.20;79.30;;;;;;5053682;28;20120;-81
2021/07/25 09:55:31;;;;;;;10.10;6.47;;;21.40;78.50;;;;;;5054060;28;20161;-80
2021/07/25 09:57:56;;;;;;;10.15;6.68;;;21.50;78.80;;;;;;5056245;28;20029;-79
2021/07/25 10:00:22;;;;;;;11.57;7.03;;;21.50;78.30;;;;;;5074191;28;20083;-74
2021/07/25 10:02:49;;;;;;;11.55;7.47;;;21.60;78.40;;;;;;5069878;28;20079;-81
2021/07/25 10:05:19;;;;;;;7.95;6.53;;;21.50;78.80;;;;;;5049238;28;20060;-79
2021/07/25 10:07:46;;;;;;;6.55;5.65;;;21.40;79.10;;;;;;5032618;28;20488;-77
2021/07/25 10:10:16;;;;;;;8.23;6.30;;;21.30;79.50;;;;;;5033503;28;20466;-80
2021/07/25 10:12:44;;;;;;;9.55;5.90;;;21.30;80.10;;;;;;5033297;28;20351;-75
2021/07/25 10:15:16;;;;;;;6.93;5.93;;;21.30;80.20;;;;;;5033437;28;20079;-77
2021/07/25 10:17:44;;;;;;;10.25;6.82;;;21.30;80.60;;;;;;5033944;28;20363;-80
2021/07/25 10:20:12;;;;;;;12.70;6.93;;;21.40;80.50;;;;;;5033360;28;20066;-80
2021/07/25 10:22:39;;;;;;;9.50;6.20;;;21.40;79.90;;;;;;5033174;28;20037;-79
2021/07/25 10:25:09;;;;;;;8.38;6.30;;;21.40;79.60;;;;;;5033197;28;20030;-75
2021/07/25 10:27:36;;;;;;;10.77;6.55;;;21.40;79.60;;;;;;5032968;28;20421;-75
2021/07/25 10:30:08;;;;;;;8.85;6.72;;;21.30;79.60;;;;;;5033110;28;20498;-78
2021/07/25 10:32:36;;;;;;;7.93;6.07;;;21.20;79.40;;;;;;5032940;28;20065;-77
2021/07/25 10:35:04;;;;;;;19.33;13.43;;;21.30;79.60;;;;;;5033061;28;20471;-76
2021/07/25 10:37:32;;;;;;;17.25;10.38;;;21.40;79.50;;;;;;5032778;28;20053;-77
2021/07/25 10:40:00;;;;;;;14.88;10.55;;;21.30;79.50;;;;;;5032958;28;20029;-79
2021/07/25 10:42:28;;;;;;;11.65;8.23;;;21.30;79.60;;;;;;5033009;28;20022;-73
2021/07/25 10:44:54;;;;;;;9.57;7.50;;;21.30;79.20;;;;;;5032935;28;20140;-74
2021/07/25 10:47:31;;;;;;;9.20;7.05;;;21.10;80.90;;;;;;5032971;28;20049;-71
2021/07/25 10:49:59;;;;;;;11.70;6.68;;;21.00;80.40;;;;;;5034047;28;20378;-78
2021/07/25 10:52:25;;;;;;;11.50;6.88;;;21.10;80.00;;;;;;5033412;28;20030;-77
2021/07/25 10:54:52;;;;;;;7.88;6.30;;;21.10;80.00;;;;;;5033519;28;20052;-74
2021/07/25 10:57:18;;;;;;;7.90;5.20;;;21.10;80.00;;;;;;5033065;28;20474;-72
2021/07/25 10:59:56;;;;;;;6.10;4.57;;;20.90;76.50;;;;;;5032852;28;20030;-78
2021/07/25 11:02:22;;;;;;;8.40;4.85;;;20.70;75.70;;;;;;5033127;28;20104;-73
2021/07/25 11:04:53;;;;;;;7.40;4.30;;;20.50;74.40;;;;;;5036662;28;20083;-75
2021/07/25 11:07:24;;;;;;;7.22;4.22;;;20.40;74.40;;;;;;5036447;28;20067;-72
2021/07/25 11:09:56;;;;;;;5.68;4.30;;;20.10;73.80;;;;;;5036659;28;20018;-76
2021/07/25 11:12:25;;;;;;;7.03;3.70;;;19.80;75.60;;;;;;5036346;28;20478;-72
2021/07/25 11:14:59;;;;;;;5.05;3.83;;;19.70;75.60;;;;;;5036506;28;20047;-76
2021/07/25 11:17:46;;;;;;;5.70;3.95;;;19.50;74.40;;;;;;5036212;28;20025;-75
2021/07/25 11:20:38;;;;;;;6.32;3.72;;;19.40;75.80;;;;;;5034649;28;20021;-73
2021/07/25 11:23:24;;;;;;;4.55;3.10;;;19.20;76.30;;;;;;5035056;28;20033;-74
2021/07/25 11:25:52;;;;;;;4.82;3.60;;;19.00;76.60;;;;;;5035011;28;20021;-76
2021/07/25 11:28:46;;;;;;;5.97;4.00;;;19.00;77.70;;;;;;5035167;28;20132;-75
2021/07/25 11:31:13;;;;;;;5.63;4.00;;;19.00;79.20;;;;;;5035484;28;20025;-73
2021/07/25 11:33:45;;;;;;;8.05;4.15;;;19.00;79.40;;;;;;5035131;28;20025;-76
2021/07/25 11:36:17;;;;;;;5.40;4.28;;;19.10;80.60;;;;;;5035078;28;20029;-72
2021/07/25 11:38:49;;;;;;;6.13;4.80;;;19.10;82.30;;;;;;5034798;28;20108;-74
2021/07/25 11:41:19;;;;;;;8.63;4.82;;;19.10;82.90;;;;;;5034852;28;20390;-74
2021/07/25 11:43:54;;;;;;;4.28;3.63;;;19.20;82.90;;;;;;5034927;28;20079;-75
2021/07/25 11:46:25;;;;;;;12.60;8.02;;;19.30;82.40;;;;;;5034432;28;20033;-76
2021/07/25 11:49:15;;;;;;;7.00;5.38;;;19.20;81.50;;;;;;5034809;28;20128;-73
2021/07/25 11:51:51;;;;;;;4.72;3.55;;;19.30;81.10;;;;;;5034350;28;20024;-72
2021/07/25 11:54:19;;;;;;;3.65;2.97;;;19.40;80.10;;;;;;5034675;28;20164;-73
2021/07/25 11:57:01;;;;;;;6.65;3.30;;;19.30;80.50;;;;;;5034628;28;20075;-73
2021/07/25 11:59:29;;;;;;;5.20;3.40;;;19.20;80.80;;;;;;5018086;28;20029;-75
2021/07/25 12:01:55;;;;;;;6.07;3.10;;;19.10;80.50;;;;;;5034445;28;20037;-75
2021/07/25 12:04:33;;;;;;;6.28;2.97;;;19.10;81.40;;;;;;5035586;28;20081;-74
2021/07/25 12:07:22;;;;;;;5.65;2.85;;;19.20;79.60;;;;;;5035539;28;20025;-73
2021/07/25 12:09:52;;;;;;;6.03;3.83;;;19.10;79.80;;;;;;5036155;28;20424;-73
2021/07/25 12:12:21;;;;;;;5.13;3.25;;;19.20;80.70;;;;;;5036047;28;20021;-75
2021/07/25 12:14:52;;;;;;;4.00;3.25;;;19.20;81.10;;;;;;5034069;28;20347;-77
2021/07/25 12:17:52;;;;;;;5.13;3.75;;;19.30;80.30;;;;;;5034335;28;20041;-72
2021/07/25 12:20:22;;;;;;;7.88;5.35;;;19.30;80.90;;;;;;5034265;28;20032;-73
2021/07/25 12:22:57;;;;;;;9.00;6.55;;;19.40;81.10;;;;;;5034377;28;20477;-76
2021/07/25 12:25:25;;;;;;;6.00;3.92;;;19.50;81.00;;;;;;5034409;28;20125;-78
2021/07/25 12:28:08;;;;;;;5.35;3.67;;;19.50;79.60;;;;;;5034267;28;20440;-73
2021/07/25 12:30:54;;;;;;;4.38;3.38;;;19.50;78.30;;;;;;5034295;28;20021;-73
2021/07/25 12:33:31;;;;;;;4.75;3.45;;;19.60;78.10;;;;;;5034125;28;20026;-73
2021/07/25 12:36:11;;;;;;;8.77;4.05;;;19.60;78.30;;;;;;5036505;28;20437;-74
2021/07/25 12:38:36;;;;;;;4.40;3.25;;;19.80;78.70;;;;;;5035459;28;20049;-76
2021/07/25 12:41:03;;;;;;;4.45;2.97;;;19.90;79.20;;;;;;5037783;28;20021;-76
2021/07/25 12:43:30;;;;;;;3.90;2.80;;;20.00;78.20;;;;;;5039778;28;20478;-74
2021/07/25 12:45:57;;;;;;;4.43;2.95;;;19.90;78.50;;;;;;5052736;28;20055;-73
2021/07/25 12:48:26;;;;;;;5.45;3.10;;;19.70;79.00;;;;;;5041917;28;20086;-73
2021/07/25 12:51:09;;;;;;;5.15;2.78;;;19.70;78.20;;;;;;5042040;28;20021;-74